sensor_id;sensor_type;location;lat;lon;timestamp;temperature;humidity
64939;DHT22;51453;47.738;7.420;2022-12-22T00:02:00;7.60;99.90
64939;DHT22;51453;47.738;7.420;2022-12-22T00:04:46;7.60;99.90
64939;DHT22;51453;47.738;7.420;2022-12-22T00:07:31;7.70;99.90
64939;DHT22;51453;47.738;7.420;2022-12-22T00:10:15;7.70;99.90
64939;DHT22;51453;47.738;7.420;2022-12-22T00:12:59;7.70;99.90
64939;DHT22;51453;47.738;7.420;2022-12-22T00:15:43;7.70;99.90
64939;DHT22;51453;47.738;7.420;2022-12-22T00:18:27;7.70;99.90
64939;DHT22;51453;47.738;7.420;2022-12-22T00:21:12;7.80;99.90
64939;DHT22;51453;47.738;7.420;2022-12-22T00:23:57;7.80;99.90
64939;DHT22;51453;47.738;7.420;2022-12-22T00:26:42;7.80;99.90
64939;DHT22;51453;47.738;7.420;2022-12-22T00:29:34;7.90;99.90
64939;DHT22;51453;47.738;7.420;2022-12-22T00:32:20;7.90;99.90
64939;DHT22;51453;47.738;7.420;2022-12-22T00:35:13;7.90;99.90
64939;DHT22;51453;47.738;7.420;2022-12-22T00:37:58;8.00;99.90
64939;DHT22;51453;47.738;7.420;2022-12-22T00:40:42;7.90;99.90
64939;DHT22;51453;47.738;7.420;2022-12-22T00:43:26;7.90;99.90
64939;DHT22;51453;47.738;7.420;2022-12-22T00:46:11;7.90;99.90
64939;DHT22;51453;47.738;7.420;2022-12-22T00:48:58;7.90;99.90
64939;DHT22;51453;47.738;7.420;2022-12-22T00:51:43;7.90;99.90
64939;DHT22;51453;47.738;7.420;2022-12-22T00:54:27;7.90;99.90
64939;DHT22;51453;47.738;7.420;2022-12-22T00:57:16;7.90;99.90
64939;DHT22;51453;47.738;7.420;2022-12-22T01:00:03;7.90;99.90
64939;DHT22;51453;47.738;7.420;2022-12-22T01:02:48;7.90;99.90
64939;DHT22;51453;47.738;7.420;2022-12-22T01:05:31;7.90;99.90
64939;DHT22;51453;47.738;7.420;2022-12-22T01:08:16;7.90;99.90
64939;DHT22;51453;47.738;7.420;2022-12-22T01:11:00;7.90;99.90
64939;DHT22;51453;47.738;7.420;2022-12-22T01:13:44;7.90;99.90
64939;DHT22;51453;47.738;7.420;2022-12-22T01:16:28;7.90;99.90
64939;DHT22;51453;47.738;7.420;2022-12-22T01:19:12;8.00;99.90
64939;DHT22;51453;47.738;7.420;2022-12-22T01:21:56;8.00;99.90
64939;DHT22;51453;47.738;7.420;2022-12-22T01:24:40;8.10;99.90
64939;DHT22;51453;47.738;7.420;2022-12-22T01:27:24;8.00;99.90
64939;DHT22;51453;47.738;7.420;2022-12-22T01:30:09;8.10;99.90
64939;DHT22;51453;47.738;7.420;2022-12-22T01:32:53;8.20;99.90
64939;DHT22;51453;47.738;7.420;2022-12-22T01:35:37;8.20;99.90
64939;DHT22;51453;47.738;7.420;2022-12-22T01:38:21;8.30;99.90
64939;DHT22;51453;47.738;7.420;2022-12-22T01:41:11;8.30;99.90
64939;DHT22;51453;47.738;7.420;2022-12-22T01:43:57;8.30;99.90
64939;DHT22;51453;47.738;7.420;2022-12-22T01:46:43;8.30;99.90
64939;DHT22;51453;47.738;7.420;2022-12-22T01:49:41;8.30;99.90
64939;DHT22;51453;47.738;7.420;2022-12-22T01:52:31;8.30;99.90
64939;DHT22;51453;47.738;7.420;2022-12-22T01:55:22;8.30;99.90
64939;DHT22;51453;47.738;7.420;2022-12-22T01:58:09;8.40;99.90
64939;DHT22;51453;47.738;7.420;2022-12-22T02:00:55;8.40;99.90
64939;DHT22;51453;47.738;7.420;2022-12-22T02:03:40;8.40;99.90
64939;DHT22;51453;47.738;7.420;2022-12-22T02:06:34;8.50;99.90
64939;DHT22;51453;47.738;7.420;2022-12-22T02:16:44;8.50;99.90
64939;DHT22;51453;47.738;7.420;2022-12-22T02:22:34;8.60;99.90
64939;DHT22;51453;47.738;7.420;2022-12-22T02:25:29;8.60;99.90
64939;DHT22;51453;47.738;7.420;2022-12-22T02:28:16;8.70;99.90
64939;DHT22;51453;47.738;7.420;2022-12-22T02:31:01;8.80;99.90
64939;DHT22;51453;47.738;7.420;2022-12-22T02:33:44;8.90;99.90
64939;DHT22;51453;47.738;7.420;2022-12-22T02:36:50;9.10;99.90
64939;DHT22;51453;47.738;7.420;2022-12-22T02:39:49;9.20;99.90
64939;DHT22;51453;47.738;7.420;2022-12-22T02:42:53;9.20;99.90
64939;DHT22;51453;47.738;7.420;2022-12-22T02:45:48;9.30;99.90
64939;DHT22;51453;47.738;7.420;2022-12-22T02:51:27;9.30;99.90
64939;DHT22;51453;47.738;7.420;2022-12-22T02:54:14;9.40;99.90
64939;DHT22;51453;47.738;7.420;2022-12-22T02:57:05;9.40;99.90
64939;DHT22;51453;47.738;7.420;2022-12-22T02:59:49;9.50;99.90
64939;DHT22;51453;47.738;7.420;2022-12-22T03:02:33;9.60;99.90
64939;DHT22;51453;47.738;7.420;2022-12-22T03:05:17;9.70;99.90
64939;DHT22;51453;47.738;7.420;2022-12-22T03:08:01;9.90;99.90
64939;DHT22;51453;47.738;7.420;2022-12-22T03:10:46;9.80;99.90
64939;DHT22;51453;47.738;7.420;2022-12-22T03:13:30;9.90;99.90
64939;DHT22;51453;47.738;7.420;2022-12-22T03:16:14;9.90;99.90
64939;DHT22;51453;47.738;7.420;2022-12-22T03:18:58;10.00;99.90
64939;DHT22;51453;47.738;7.420;2022-12-22T03:21:42;10.30;99.90
64939;DHT22;51453;47.738;7.420;2022-12-22T03:24:26;10.50;99.90
64939;DHT22;51453;47.738;7.420;2022-12-22T03:27:10;10.70;99.90
64939;DHT22;51453;47.738;7.420;2022-12-22T03:29:36;10.90;99.90
64939;DHT22;51453;47.738;7.420;2022-12-22T03:32:01;10.90;99.90
64939;DHT22;51453;47.738;7.420;2022-12-22T03:34:27;11.00;99.90
64939;DHT22;51453;47.738;7.420;2022-12-22T03:36:52;11.00;99.90
64939;DHT22;51453;47.738;7.420;2022-12-22T03:39:18;11.10;99.90
64939;DHT22;51453;47.738;7.420;2022-12-22T03:41:44;11.20;99.90
64939;DHT22;51453;47.738;7.420;2022-12-22T03:44:28;11.40;99.90
64939;DHT22;51453;47.738;7.420;2022-12-22T03:47:12;11.40;99.90
64939;DHT22;51453;47.738;7.420;2022-12-22T03:49:37;11.40;99.90
64939;DHT22;51453;47.738;7.420;2022-12-22T03:52:03;11.50;99.90
64939;DHT22;51453;47.738;7.420;2022-12-22T03:54:29;11.50;99.90
64939;DHT22;51453;47.738;7.420;2022-12-22T03:56:54;11.70;99.90
64939;DHT22;51453;47.738;7.420;2022-12-22T03:59:20;11.80;99.90
64939;DHT22;51453;47.738;7.420;2022-12-22T04:01:49;11.80;99.90
64939;DHT22;51453;47.738;7.420;2022-12-22T04:04:16;11.70;99.90
64939;DHT22;51453;47.738;7.420;2022-12-22T04:06:44;11.80;99.90
64939;DHT22;51453;47.738;7.420;2022-12-22T04:09:10;11.80;99.90
64939;DHT22;51453;47.738;7.420;2022-12-22T04:11:36;11.80;99.90
64939;DHT22;51453;47.738;7.420;2022-12-22T04:14:20;11.80;99.90
64939;DHT22;51453;47.738;7.420;2022-12-22T04:16:46;11.70;99.90
64939;DHT22;51453;47.738;7.420;2022-12-22T04:19:11;11.70;99.90
64939;DHT22;51453;47.738;7.420;2022-12-22T04:21:37;11.70;99.90
64939;DHT22;51453;47.738;7.420;2022-12-22T04:24:04;11.70;99.90
64939;DHT22;51453;47.738;7.420;2022-12-22T04:26:30;11.60;99.90
64939;DHT22;51453;47.738;7.420;2022-12-22T04:28:56;11.50;99.90
64939;DHT22;51453;47.738;7.420;2022-12-22T04:31:22;11.50;99.90
64939;DHT22;51453;47.738;7.420;2022-12-22T04:33:48;11.40;99.90
64939;DHT22;51453;47.738;7.420;2022-12-22T04:36:14;11.30;99.90
64939;DHT22;51453;47.738;7.420;2022-12-22T04:38:40;11.20;99.90
64939;DHT22;51453;47.738;7.420;2022-12-22T04:41:06;11.40;99.90
64939;DHT22;51453;47.738;7.420;2022-12-22T04:43:32;11.60;99.90
64939;DHT22;51453;47.738;7.420;2022-12-22T04:45:58;11.60;99.90
64939;DHT22;51453;47.738;7.420;2022-12-22T04:48:26;11.50;99.90
64939;DHT22;51453;47.738;7.420;2022-12-22T04:50:54;11.40;99.90
64939;DHT22;51453;47.738;7.420;2022-12-22T04:53:21;11.40;99.90
64939;DHT22;51453;47.738;7.420;2022-12-22T04:55:49;11.40;99.90
64939;DHT22;51453;47.738;7.420;2022-12-22T04:58:15;11.50;99.90
64939;DHT22;51453;47.738;7.420;2022-12-22T05:00:41;11.40;99.90
64939;DHT22;51453;47.738;7.420;2022-12-22T05:03:08;11.40;99.90
64939;DHT22;51453;47.738;7.420;2022-12-22T05:05:34;11.50;99.90
64939;DHT22;51453;47.738;7.420;2022-12-22T05:08:01;11.40;99.90
64939;DHT22;51453;47.738;7.420;2022-12-22T05:10:27;11.30;99.90
64939;DHT22;51453;47.738;7.420;2022-12-22T05:12:53;11.30;99.90
64939;DHT22;51453;47.738;7.420;2022-12-22T05:15:26;11.40;99.90
64939;DHT22;51453;47.738;7.420;2022-12-22T05:17:53;11.50;99.90
64939;DHT22;51453;47.738;7.420;2022-12-22T05:20:19;11.60;99.90
64939;DHT22;51453;47.738;7.420;2022-12-22T05:22:45;11.70;99.90
64939;DHT22;51453;47.738;7.420;2022-12-22T05:25:12;11.60;99.90
64939;DHT22;51453;47.738;7.420;2022-12-22T05:27:42;11.60;99.90
64939;DHT22;51453;47.738;7.420;2022-12-22T05:30:08;11.60;99.90
64939;DHT22;51453;47.738;7.420;2022-12-22T05:32:34;11.60;99.90
64939;DHT22;51453;47.738;7.420;2022-12-22T05:35:00;11.60;99.90
64939;DHT22;51453;47.738;7.420;2022-12-22T05:37:25;11.70;99.90
64939;DHT22;51453;47.738;7.420;2022-12-22T05:39:51;11.70;99.90
64939;DHT22;51453;47.738;7.420;2022-12-22T05:42:17;11.70;99.90
64939;DHT22;51453;47.738;7.420;2022-12-22T05:45:05;11.80;99.90
64939;DHT22;51453;47.738;7.420;2022-12-22T05:47:32;11.70;99.90
64939;DHT22;51453;47.738;7.420;2022-12-22T05:49:58;11.70;99.90
64939;DHT22;51453;47.738;7.420;2022-12-22T05:52:26;11.70;99.90
64939;DHT22;51453;47.738;7.420;2022-12-22T05:54:52;11.80;99.90
64939;DHT22;51453;47.738;7.420;2022-12-22T05:57:17;11.90;99.90
64939;DHT22;51453;47.738;7.420;2022-12-22T05:59:43;11.80;99.90
64939;DHT22;51453;47.738;7.420;2022-12-22T06:02:09;11.70;99.90
64939;DHT22;51453;47.738;7.420;2022-12-22T06:04:34;11.70;99.90
64939;DHT22;51453;47.738;7.420;2022-12-22T06:07:00;11.70;99.90
64939;DHT22;51453;47.738;7.420;2022-12-22T06:09:25;11.70;99.90
64939;DHT22;51453;47.738;7.420;2022-12-22T06:11:51;11.60;99.90
64939;DHT22;51453;47.738;7.420;2022-12-22T06:14:17;11.40;99.90
64939;DHT22;51453;47.738;7.420;2022-12-22T06:16:42;11.40;99.90
64939;DHT22;51453;47.738;7.420;2022-12-22T06:19:08;11.50;99.90
64939;DHT22;51453;47.738;7.420;2022-12-22T06:21:33;11.30;99.90
64939;DHT22;51453;47.738;7.420;2022-12-22T06:23:59;11.30;99.90
64939;DHT22;51453;47.738;7.420;2022-12-22T06:26:25;11.60;99.90
64939;DHT22;51453;47.738;7.420;2022-12-22T06:28:50;11.60;99.90
64939;DHT22;51453;47.738;7.420;2022-12-22T06:31:16;11.50;99.90
64939;DHT22;51453;47.738;7.420;2022-12-22T06:33:42;11.50;99.90
64939;DHT22;51453;47.738;7.420;2022-12-22T06:36:08;11.70;99.90
64939;DHT22;51453;47.738;7.420;2022-12-22T06:38:34;11.60;99.90
64939;DHT22;51453;47.738;7.420;2022-12-22T06:41:00;11.70;99.90
64939;DHT22;51453;47.738;7.420;2022-12-22T06:43:25;11.50;99.90
64939;DHT22;51453;47.738;7.420;2022-12-22T06:45:51;11.40;99.90
64939;DHT22;51453;47.738;7.420;2022-12-22T06:48:18;11.40;99.90
64939;DHT22;51453;47.738;7.420;2022-12-22T06:50:43;11.30;99.90
64939;DHT22;51453;47.738;7.420;2022-12-22T06:53:09;11.50;99.90
64939;DHT22;51453;47.738;7.420;2022-12-22T06:55:36;11.30;99.90
64939;DHT22;51453;47.738;7.420;2022-12-22T06:58:02;11.30;99.90
64939;DHT22;51453;47.738;7.420;2022-12-22T07:00:28;11.20;99.90
64939;DHT22;51453;47.738;7.420;2022-12-22T07:02:54;11.30;99.90
64939;DHT22;51453;47.738;7.420;2022-12-22T07:05:20;11.30;99.90
64939;DHT22;51453;47.738;7.420;2022-12-22T07:07:46;11.20;99.90
64939;DHT22;51453;47.738;7.420;2022-12-22T07:10:11;11.10;99.90
64939;DHT22;51453;47.738;7.420;2022-12-22T07:12:37;11.00;99.90
64939;DHT22;51453;47.738;7.420;2022-12-22T07:15:03;11.00;99.90
64939;DHT22;51453;47.738;7.420;2022-12-22T07:17:29;11.00;99.90
64939;DHT22;51453;47.738;7.420;2022-12-22T07:19:55;11.00;99.90
64939;DHT22;51453;47.738;7.420;2022-12-22T07:22:21;11.00;99.90
64939;DHT22;51453;47.738;7.420;2022-12-22T07:24:46;10.90;99.90
64939;DHT22;51453;47.738;7.420;2022-12-22T07:27:12;10.90;99.90
64939;DHT22;51453;47.738;7.420;2022-12-22T07:29:37;10.80;99.90
64939;DHT22;51453;47.738;7.420;2022-12-22T07:32:05;10.90;99.90
64939;DHT22;51453;47.738;7.420;2022-12-22T07:34:30;10.90;99.90
64939;DHT22;51453;47.738;7.420;2022-12-22T07:36:56;10.90;99.90
64939;DHT22;51453;47.738;7.420;2022-12-22T07:39:22;10.80;99.90
64939;DHT22;51453;47.738;7.420;2022-12-22T07:41:47;10.50;99.90
64939;DHT22;51453;47.738;7.420;2022-12-22T07:44:32;10.20;99.90
64939;DHT22;51453;47.738;7.420;2022-12-22T07:46:57;10.10;99.90
64939;DHT22;51453;47.738;7.420;2022-12-22T07:49:23;10.10;99.90
64939;DHT22;51453;47.738;7.420;2022-12-22T07:52:08;9.90;99.90
64939;DHT22;51453;47.738;7.420;2022-12-22T07:54:34;9.90;99.90
64939;DHT22;51453;47.738;7.420;2022-12-22T07:57:00;10.00;99.90
64939;DHT22;51453;47.738;7.420;2022-12-22T07:59:26;10.10;99.90
64939;DHT22;51453;47.738;7.420;2022-12-22T08:01:51;10.10;99.90
64939;DHT22;51453;47.738;7.420;2022-12-22T08:04:17;10.20;99.90
64939;DHT22;51453;47.738;7.420;2022-12-22T08:06:43;10.20;99.90
64939;DHT22;51453;47.738;7.420;2022-12-22T08:09:11;10.30;99.90
64939;DHT22;51453;47.738;7.420;2022-12-22T08:11:37;10.30;99.90
64939;DHT22;51453;47.738;7.420;2022-12-22T08:14:03;10.40;99.90
64939;DHT22;51453;47.738;7.420;2022-12-22T08:16:28;10.50;99.90
64939;DHT22;51453;47.738;7.420;2022-12-22T08:18:54;10.50;99.90
64939;DHT22;51453;47.738;7.420;2022-12-22T08:21:20;10.60;99.90
64939;DHT22;51453;47.738;7.420;2022-12-22T08:23:48;10.80;99.90
64939;DHT22;51453;47.738;7.420;2022-12-22T08:26:19;10.70;99.90
64939;DHT22;51453;47.738;7.420;2022-12-22T08:31:17;10.60;99.90
64939;DHT22;51453;47.738;7.420;2022-12-22T08:33:44;10.40;99.90
64939;DHT22;51453;47.738;7.420;2022-12-22T08:36:10;10.10;99.90
64939;DHT22;51453;47.738;7.420;2022-12-22T08:38:38;10.10;99.90
64939;DHT22;51453;47.738;7.420;2022-12-22T08:41:04;9.90;99.90
64939;DHT22;51453;47.738;7.420;2022-12-22T08:43:32;9.90;99.90
64939;DHT22;51453;47.738;7.420;2022-12-22T08:45:58;9.90;99.90
64939;DHT22;51453;47.738;7.420;2022-12-22T08:48:23;10.00;99.90
64939;DHT22;51453;47.738;7.420;2022-12-22T08:50:49;10.00;99.90
64939;DHT22;51453;47.738;7.420;2022-12-22T08:53:14;10.00;99.90
64939;DHT22;51453;47.738;7.420;2022-12-22T08:55:40;10.10;99.90
64939;DHT22;51453;47.738;7.420;2022-12-22T08:58:06;10.30;99.90
64939;DHT22;51453;47.738;7.420;2022-12-22T09:00:31;10.50;99.90
64939;DHT22;51453;47.738;7.420;2022-12-22T09:02:57;10.70;99.90
64939;DHT22;51453;47.738;7.420;2022-12-22T09:05:23;10.80;99.90
64939;DHT22;51453;47.738;7.420;2022-12-22T09:07:48;10.90;99.90
64939;DHT22;51453;47.738;7.420;2022-12-22T09:10:14;11.00;99.90
64939;DHT22;51453;47.738;7.420;2022-12-22T09:12:40;11.10;99.90
64939;DHT22;51453;47.738;7.420;2022-12-22T09:15:06;11.20;99.90
64939;DHT22;51453;47.738;7.420;2022-12-22T09:17:34;11.40;99.90
64939;DHT22;51453;47.738;7.420;2022-12-22T09:20:02;11.60;99.90
64939;DHT22;51453;47.738;7.420;2022-12-22T09:22:29;11.70;99.90
64939;DHT22;51453;47.738;7.420;2022-12-22T09:24:55;11.90;99.90
64939;DHT22;51453;47.738;7.420;2022-12-22T09:27:20;12.00;99.90
64939;DHT22;51453;47.738;7.420;2022-12-22T09:29:46;12.00;99.90
64939;DHT22;51453;47.738;7.420;2022-12-22T09:32:12;12.10;99.90
64939;DHT22;51453;47.738;7.420;2022-12-22T09:34:37;12.20;99.90
64939;DHT22;51453;47.738;7.420;2022-12-22T09:37:03;12.30;99.90
64939;DHT22;51453;47.738;7.420;2022-12-22T09:39:31;12.40;99.90
64939;DHT22;51453;47.738;7.420;2022-12-22T09:41:57;12.60;99.90
64939;DHT22;51453;47.738;7.420;2022-12-22T09:44:32;12.70;99.90
64939;DHT22;51453;47.738;7.420;2022-12-22T09:47:01;12.80;99.90
64939;DHT22;51453;47.738;7.420;2022-12-22T09:49:28;12.80;99.90
64939;DHT22;51453;47.738;7.420;2022-12-22T09:51:59;12.80;99.90
64939;DHT22;51453;47.738;7.420;2022-12-22T09:54:26;12.80;99.90
64939;DHT22;51453;47.738;7.420;2022-12-22T09:56:52;12.80;99.90
64939;DHT22;51453;47.738;7.420;2022-12-22T09:59:24;12.80;99.90
64939;DHT22;51453;47.738;7.420;2022-12-22T10:02:23;12.70;99.90
64939;DHT22;51453;47.738;7.420;2022-12-22T10:04:59;12.70;99.90
64939;DHT22;51453;47.738;7.420;2022-12-22T10:10:07;13.00;99.90
64939;DHT22;51453;47.738;7.420;2022-12-22T10:12:41;13.10;99.90
64939;DHT22;51453;47.738;7.420;2022-12-22T10:15:10;13.20;99.90
64939;DHT22;51453;47.738;7.420;2022-12-22T10:17:36;13.10;99.90
64939;DHT22;51453;47.738;7.420;2022-12-22T10:22:56;12.70;99.90
64939;DHT22;51453;47.738;7.420;2022-12-22T10:25:36;12.50;99.90
64939;DHT22;51453;47.738;7.420;2022-12-22T10:28:23;12.20;99.90
64939;DHT22;51453;47.738;7.420;2022-12-22T10:31:12;11.80;99.90
64939;DHT22;51453;47.738;7.420;2022-12-22T10:33:38;11.40;99.90
64939;DHT22;51453;47.738;7.420;2022-12-22T10:36:05;11.10;99.90
64939;DHT22;51453;47.738;7.420;2022-12-22T10:38:39;10.90;99.90
64939;DHT22;51453;47.738;7.420;2022-12-22T10:41:13;10.80;99.90
64939;DHT22;51453;47.738;7.420;2022-12-22T10:43:49;10.80;99.90
64939;DHT22;51453;47.738;7.420;2022-12-22T10:46:16;10.70;99.90
64939;DHT22;51453;47.738;7.420;2022-12-22T10:48:42;10.80;99.90
64939;DHT22;51453;47.738;7.420;2022-12-22T10:51:10;10.90;99.90
64939;DHT22;51453;47.738;7.420;2022-12-22T10:56:20;11.40;99.90
64939;DHT22;51453;47.738;7.420;2022-12-22T11:01:33;11.50;99.90
64939;DHT22;51453;47.738;7.420;2022-12-22T11:04:23;11.60;99.90
64939;DHT22;51453;47.738;7.420;2022-12-22T11:06:50;11.70;99.90
64939;DHT22;51453;47.738;7.420;2022-12-22T11:09:16;11.80;99.90
64939;DHT22;51453;47.738;7.420;2022-12-22T11:21:04;12.10;99.90
64939;DHT22;51453;47.738;7.420;2022-12-22T11:26:13;12.20;99.90
64939;DHT22;51453;47.738;7.420;2022-12-22T11:31:45;12.30;99.90
64939;DHT22;51453;47.738;7.420;2022-12-22T11:40:37;12.70;99.90
64939;DHT22;51453;47.738;7.420;2022-12-22T11:46:11;12.30;99.90
64939;DHT22;51453;47.738;7.420;2022-12-22T11:52:02;12.00;99.90
64939;DHT22;51453;47.738;7.420;2022-12-22T12:00:00;10.90;99.90
64939;DHT22;51453;47.738;7.420;2022-12-22T12:13:53;10.80;99.90
64939;DHT22;51453;47.738;7.420;2022-12-22T12:17:02;10.90;99.90
64939;DHT22;51453;47.738;7.420;2022-12-22T12:22:12;11.00;99.90
64939;DHT22;51453;47.738;7.420;2022-12-22T12:30:23;11.10;99.90
64939;DHT22;51453;47.738;7.420;2022-12-22T12:32:57;11.20;99.90
64939;DHT22;51453;47.738;7.420;2022-12-22T12:41:05;11.70;99.90
64939;DHT22;51453;47.738;7.420;2022-12-22T12:43:32;11.80;99.90
64939;DHT22;51453;47.738;7.420;2022-12-22T12:45:58;11.90;99.90
64939;DHT22;51453;47.738;7.420;2022-12-22T12:50:54;12.00;99.90
64939;DHT22;51453;47.738;7.420;2022-12-22T12:53:21;12.10;99.90
64939;DHT22;51453;47.738;7.420;2022-12-22T13:01:04;12.40;99.90
64939;DHT22;51453;47.738;7.420;2022-12-22T13:06:01;12.80;99.90
64939;DHT22;51453;47.738;7.420;2022-12-22T13:08:31;13.00;99.90
64939;DHT22;51453;47.738;7.420;2022-12-22T13:16:19;13.20;99.90
64939;DHT22;51453;47.738;7.420;2022-12-22T13:18:39;13.30;99.90
64939;DHT22;51453;47.738;7.420;2022-12-22T13:21:15;13.40;99.90
64939;DHT22;51453;47.738;7.420;2022-12-22T13:24:11;13.50;99.90
64939;DHT22;51453;47.738;7.420;2022-12-22T13:26:40;13.50;99.90
64939;DHT22;51453;47.738;7.420;2022-12-22T13:34:37;13.30;99.90
64939;DHT22;51453;47.738;7.420;2022-12-22T13:37:20;13.20;99.90
64939;DHT22;51453;47.738;7.420;2022-12-22T13:40:25;13.10;99.90
64939;DHT22;51453;47.738;7.420;2022-12-22T13:43:00;13.00;99.90
64939;DHT22;51453;47.738;7.420;2022-12-22T13:47:54;13.00;99.90
64939;DHT22;51453;47.738;7.420;2022-12-22T13:52:53;13.00;99.90
64939;DHT22;51453;47.738;7.420;2022-12-22T13:55:29;13.00;99.90
64939;DHT22;51453;47.738;7.420;2022-12-22T13:58:05;12.90;99.90
64939;DHT22;51453;47.738;7.420;2022-12-22T14:00:32;12.90;99.90
64939;DHT22;51453;47.738;7.420;2022-12-22T14:02:58;13.00;99.90
64939;DHT22;51453;47.738;7.420;2022-12-22T14:05:30;12.90;99.90
64939;DHT22;51453;47.738;7.420;2022-12-22T14:08:04;12.90;99.90
64939;DHT22;51453;47.738;7.420;2022-12-22T14:13:00;12.90;99.90
64939;DHT22;51453;47.738;7.420;2022-12-22T14:15:26;12.90;99.90
64939;DHT22;51453;47.738;7.420;2022-12-22T14:17:52;12.90;99.90
64939;DHT22;51453;47.738;7.420;2022-12-22T14:20:31;12.90;99.90
64939;DHT22;51453;47.738;7.420;2022-12-22T14:25:45;12.80;99.90
64939;DHT22;51453;47.738;7.420;2022-12-22T14:28:22;12.80;99.90
64939;DHT22;51453;47.738;7.420;2022-12-22T14:30:51;12.70;99.90
64939;DHT22;51453;47.738;7.420;2022-12-22T14:38:38;12.60;99.90
64939;DHT22;51453;47.738;7.420;2022-12-22T14:41:21;12.60;99.90
64939;DHT22;51453;47.738;7.420;2022-12-22T14:44:42;12.60;99.90
64939;DHT22;51453;47.738;7.420;2022-12-22T14:52:20;12.50;99.90
64939;DHT22;51453;47.738;7.420;2022-12-22T14:54:48;12.50;99.90
64939;DHT22;51453;47.738;7.420;2022-12-22T14:57:37;12.40;99.90
64939;DHT22;51453;47.738;7.420;2022-12-22T15:02:56;12.40;99.90
64939;DHT22;51453;47.738;7.420;2022-12-22T15:07:56;12.30;99.90
64939;DHT22;51453;47.738;7.420;2022-12-22T15:10:23;12.30;99.90
64939;DHT22;51453;47.738;7.420;2022-12-22T15:12:53;12.30;99.90
64939;DHT22;51453;47.738;7.420;2022-12-22T15:15:21;12.30;99.90
64939;DHT22;51453;47.738;7.420;2022-12-22T15:17:50;12.20;99.90
64939;DHT22;51453;47.738;7.420;2022-12-22T15:20:25;12.20;99.90
64939;DHT22;51453;47.738;7.420;2022-12-22T15:22:51;12.20;99.90
64939;DHT22;51453;47.738;7.420;2022-12-22T15:25:22;12.20;99.90
64939;DHT22;51453;47.738;7.420;2022-12-22T15:27:49;12.00;99.90
64939;DHT22;51453;47.738;7.420;2022-12-22T15:30:20;11.90;99.90
64939;DHT22;51453;47.738;7.420;2022-12-22T15:32:47;12.00;99.90
64939;DHT22;51453;47.738;7.420;2022-12-22T15:35:28;12.00;99.90
64939;DHT22;51453;47.738;7.420;2022-12-22T15:37:56;12.10;99.90
64939;DHT22;51453;47.738;7.420;2022-12-22T15:40:22;12.10;99.90
64939;DHT22;51453;47.738;7.420;2022-12-22T15:42:49;12.00;99.90
64939;DHT22;51453;47.738;7.420;2022-12-22T15:45:16;12.00;99.90
64939;DHT22;51453;47.738;7.420;2022-12-22T15:47:44;12.00;99.90
64939;DHT22;51453;47.738;7.420;2022-12-22T15:50:19;12.20;99.90
64939;DHT22;51453;47.738;7.420;2022-12-22T15:52:52;12.20;99.90
64939;DHT22;51453;47.738;7.420;2022-12-22T15:55:18;12.30;99.90
64939;DHT22;51453;47.738;7.420;2022-12-22T15:57:44;12.30;99.90
64939;DHT22;51453;47.738;7.420;2022-12-22T16:00:12;12.40;99.90
64939;DHT22;51453;47.738;7.420;2022-12-22T16:02:38;12.40;99.90
64939;DHT22;51453;47.738;7.420;2022-12-22T16:05:04;12.30;99.90
64939;DHT22;51453;47.738;7.420;2022-12-22T16:07:30;12.20;99.90
64939;DHT22;51453;47.738;7.420;2022-12-22T16:09:57;12.30;99.90
64939;DHT22;51453;47.738;7.420;2022-12-22T16:12:23;12.30;99.90
64939;DHT22;51453;47.738;7.420;2022-12-22T16:14:51;12.20;99.90
64939;DHT22;51453;47.738;7.420;2022-12-22T16:17:23;12.30;99.90
64939;DHT22;51453;47.738;7.420;2022-12-22T16:19:49;12.40;99.90
64939;DHT22;51453;47.738;7.420;2022-12-22T16:22:17;12.40;99.90
64939;DHT22;51453;47.738;7.420;2022-12-22T16:24:46;12.20;99.90
64939;DHT22;51453;47.738;7.420;2022-12-22T16:27:13;12.00;99.90
64939;DHT22;51453;47.738;7.420;2022-12-22T16:29:44;11.80;99.90
64939;DHT22;51453;47.738;7.420;2022-12-22T16:34:49;11.40;99.90
64939;DHT22;51453;47.738;7.420;2022-12-22T16:37:15;11.20;99.90
64939;DHT22;51453;47.738;7.420;2022-12-22T16:39:41;11.00;99.90
64939;DHT22;51453;47.738;7.420;2022-12-22T16:42:14;10.90;99.90
64939;DHT22;51453;47.738;7.420;2022-12-22T16:44:42;10.80;99.90
64939;DHT22;51453;47.738;7.420;2022-12-22T16:47:18;10.70;99.90
64939;DHT22;51453;47.738;7.420;2022-12-22T16:49:46;10.70;99.90
64939;DHT22;51453;47.738;7.420;2022-12-22T16:52:36;10.70;99.90
64939;DHT22;51453;47.738;7.420;2022-12-22T16:55:12;10.70;99.90
64939;DHT22;51453;47.738;7.420;2022-12-22T16:57:38;10.60;99.90
64939;DHT22;51453;47.738;7.420;2022-12-22T17:00:04;10.60;99.90
64939;DHT22;51453;47.738;7.420;2022-12-22T17:02:33;10.50;99.90
64939;DHT22;51453;47.738;7.420;2022-12-22T17:05:00;10.40;99.90
64939;DHT22;51453;47.738;7.420;2022-12-22T17:07:29;10.30;99.90
64939;DHT22;51453;47.738;7.420;2022-12-22T17:09:58;10.20;99.90
64939;DHT22;51453;47.738;7.420;2022-12-22T17:12:31;10.10;99.90
64939;DHT22;51453;47.738;7.420;2022-12-22T17:14:58;10.10;99.90
64939;DHT22;51453;47.738;7.420;2022-12-22T17:17:24;10.10;99.90
64939;DHT22;51453;47.738;7.420;2022-12-22T17:19:51;10.10;99.90
64939;DHT22;51453;47.738;7.420;2022-12-22T17:22:23;10.00;99.90
64939;DHT22;51453;47.738;7.420;2022-12-22T17:24:50;10.00;99.90
64939;DHT22;51453;47.738;7.420;2022-12-22T17:27:21;10.00;99.90
64939;DHT22;51453;47.738;7.420;2022-12-22T17:29:47;9.90;99.90
64939;DHT22;51453;47.738;7.420;2022-12-22T17:32:13;9.90;99.90
64939;DHT22;51453;47.738;7.420;2022-12-22T17:34:39;9.90;99.90
64939;DHT22;51453;47.738;7.420;2022-12-22T17:37:15;9.90;99.90
64939;DHT22;51453;47.738;7.420;2022-12-22T17:39:42;9.80;99.90
64939;DHT22;51453;47.738;7.420;2022-12-22T17:42:21;9.80;99.90
64939;DHT22;51453;47.738;7.420;2022-12-22T17:44:49;9.80;99.90
64939;DHT22;51453;47.738;7.420;2022-12-22T17:47:17;9.80;99.90
64939;DHT22;51453;47.738;7.420;2022-12-22T17:49:43;9.70;99.90
64939;DHT22;51453;47.738;7.420;2022-12-22T17:52:19;9.70;99.90
64939;DHT22;51453;47.738;7.420;2022-12-22T17:54:47;9.70;99.90
64939;DHT22;51453;47.738;7.420;2022-12-22T17:57:20;9.70;99.90
64939;DHT22;51453;47.738;7.420;2022-12-22T17:59:46;9.70;99.90
64939;DHT22;51453;47.738;7.420;2022-12-22T18:02:17;9.70;99.90
64939;DHT22;51453;47.738;7.420;2022-12-22T18:04:43;9.70;99.90
64939;DHT22;51453;47.738;7.420;2022-12-22T18:07:09;9.70;99.90
64939;DHT22;51453;47.738;7.420;2022-12-22T18:09:35;9.60;99.90
64939;DHT22;51453;47.738;7.420;2022-12-22T18:12:02;9.60;99.90
64939;DHT22;51453;47.738;7.420;2022-12-22T18:14:28;9.60;99.90
64939;DHT22;51453;47.738;7.420;2022-12-22T18:16:54;9.60;99.90
64939;DHT22;51453;47.738;7.420;2022-12-22T18:19:19;9.60;99.90
64939;DHT22;51453;47.738;7.420;2022-12-22T18:21:45;9.50;99.90